Time;durP1;ratioP1;P1;durP2;ratioP2;P2;SDS_P1;SDS_P2;PMS_P1;PMS_P2;Temp;Humidity;BMP_temperature;BMP_pressure;BME280_temperature;BME280_humidity;BME280_pressure;Samples;Min_cycle;Max_cycle;Signal;HPM_P1;HPM_P2
2021/07/23 00:00:43;;;;;;;7.43;4.22;;;;;;;;;;5110636;28;20080;-70
2021/07/23 00:03:09;;;;;;;7.97;3.92;;;;;;;;;;5110897;28;20035;-70
2021/07/23 00:05:35;;;;;;;7.60;3.72;;;;;;;;;;5110801;28;20043;-71
2021/07/23 00:08:01;;;;;;;6.55;3.50;;;;;;;;;;5110484;28;20016;-70
2021/07/23 00:10:28;;;;;;;7.47;4.07;;;;;;;;;;5111028;28;20026;-71
2021/07/23 00:13:36;;;;;;;8.73;3.83;;;;;;;;;;5111107;27;20886;-70
2021/07/23 00:16:02;;;;;;;7.82;4.07;;;;;;;;;;5109982;28;20500;-70
2021/07/23 00:18:28;;;;;;;9.25;4.43;;;;;;;;;;5111210;28;20043;-71
2021/07/23 00:20:54;;;;;;;9.77;3.53;;;;;;;;;;5110905;28;20031;-70
2021/07/23 00:24:56;;;;;;;6.07;3.50;;;;;;;;;;5112063;27;20396;-70
2021/07/23 00:28:08;;;;;;;6.88;4.25;;;;;;;;;;5111294;27;20395;-70
2021/07/23 00:30:34;;;;;;;6.85;3.88;;;;;;;;;;5111337;28;20062;-70
2021/07/23 00:34:11;;;;;;;7.32;3.88;;;;;;;;;;5111169;27;20397;-70
2021/07/23 00:36:37;;;;;;;5.15;3.30;;;;;;;;;;5111259;28;20020;-70
2021/07/23 00:39:03;;;;;;;7.20;3.53;;;;;;;;;;5111192;28;20020;-70
2021/07/23 00:41:30;;;;;;;6.50;3.65;;;;;;;;;;5110776;28;20020;-70
2021/07/23 00:43:56;;;;;;;5.60;3.40;;;;;;;;;;5111034;28;20027;-70
2021/07/23 00:46:28;;;;;;;6.22;4.05;;;;;;;;;;5109763;28;20032;-70
2021/07/23 00:48:54;;;;;;;9.75;4.07;;;;;;;;;;5110646;28;20021;-70
2021/07/23 00:51:20;;;;;;;7.18;3.85;;;;;;;;;;5110927;28;20361;-70
2021/07/23 00:53:46;;;;;;;6.85;3.78;;;;;;;;;;5109572;28;20088;-71
2021/07/23 00:56:12;;;;;;;6.78;3.97;;;;;;;;;;5110520;28;20016;-70
2021/07/23 00:58:39;;;;;;;7.45;4.13;;;;;;;;;;5110873;28;20024;-71
2021/07/23 01:01:05;;;;;;;11.20;4.25;;;;;;;;;;5110824;28;20024;-70
2021/07/23 01:05:13;;;;;;;7.43;4.05;;;;;;;;;;5111806;27;20494;-70
2021/07/23 01:07:39;;;;;;;7.97;3.75;;;;;;;;;;5111416;28;20031;-70
2021/07/23 01:10:06;;;;;;;6.82;4.15;;;;;;;;;;5109660;28;20471;-70
2021/07/23 01:12:35;;;;;;;5.93;3.70;;;;;;;;;;5111156;28;20552;-71
2021/07/23 01:15:01;;;;;;;6.68;3.97;;;;;;;;;;5111086;28;20103;-71
2021/07/23 01:17:28;;;;;;;7.40;3.53;;;;;;;;;;5110816;28;20023;-70
2021/07/23 01:20:13;;;;;;;7.63;3.20;;;;;;;;;;5111223;28;20024;-70
2021/07/23 01:23:00;;;;;;;7.40;3.65;;;;;;;;;;5111949;27;20409;-70
2021/07/23 01:25:27;;;;;;;7.97;3.15;;;;;;;;;;5109625;28;20442;-70
2021/07/23 01:29:47;;;;;;;6.30;3.55;;;;;;;;;;5111933;27;20516;-70
2021/07/23 01:32:39;;;;;;;6.25;3.58;;;;;;;;;;5111041;27;20389;-70
2021/07/23 01:36:39;;;;;;;6.00;3.55;;;;;;;;;;5111193;27;20321;-70
2021/07/23 01:39:05;;;;;;;5.30;3.25;;;;;;;;;;5092578;28;20073;-70
2021/07/23 01:41:33;;;;;;;9.70;3.95;;;;;;;;;;5111344;28;20027;-70
2021/07/23 01:45:25;;;;;;;5.88;3.28;;;;;;;;;;5110949;27;20384;-70
2021/07/23 01:47:53;;;;;;;6.20;3.70;;;;;;;;;;5109978;28;20024;-70
2021/07/23 01:50:19;;;;;;;6.32;3.50;;;;;;;;;;5109891;28;20383;-70
2021/07/23 01:52:46;;;;;;;5.63;2.97;;;;;;;;;;5110957;28;20026;-70
2021/07/23 01:55:12;;;;;;;6.32;3.75;;;;;;;;;;5109876;28;20035;-70
2021/07/23 01:57:38;;;;;;;7.47;3.85;;;;;;;;;;5111089;28;20023;-70
2021/07/23 02:00:07;;;;;;;7.10;3.75;;;;;;;;;;5110709;28;20020;-70
2021/07/23 02:02:34;;;;;;;7.85;4.18;;;;;;;;;;5110948;28;20051;-70
2021/07/23 02:05:00;;;;;;;7.13;3.70;;;;;;;;;;5110871;28;20441;-70
2021/07/23 02:07:52;;;;;;;7.03;3.58;;;;;;;;;;5111409;27;20939;-70
2021/07/23 02:10:33;;;;;;;7.30;4.10;;;;;;;;;;5112112;27;20769;-70
2021/07/23 02:14:35;;;;;;;8.05;3.72;;;;;;;;;;5111128;27;20904;-70
2021/07/23 02:18:22;;;;;;;5.25;3.50;;;;;;;;;;5111412;27;20401;-70
2021/07/23 02:20:49;;;;;;;12.27;4.78;;;;;;;;;;5110966;28;20020;-70
2021/07/23 02:24:17;;;;;;;6.05;3.47;;;;;;;;;;5111470;27;20750;-70
2021/07/23 02:26:44;;;;;;;8.73;4.28;;;;;;;;;;5110879;28;20464;-70
2021/07/23 02:29:10;;;;;;;6.35;3.53;;;;;;;;;;5109868;28;20031;-70
2021/07/23 02:31:36;;;;;;;8.27;4.20;;;;;;;;;;5111197;28;20016;-70
2021/07/23 02:34:02;;;;;;;6.18;3.53;;;;;;;;;;5110874;28;20394;-69
2021/07/23 02:36:42;;;;;;;9.18;3.88;;;;;;;;;;5111306;27;20385;-70
2021/07/23 02:42:48;;;;;;;7.72;3.55;;;;;;;;;;5110952;27;20912;-69
2021/07/23 02:45:14;;;;;;;4.78;3.15;;;;;;;;;;5111226;28;20451;-70
2021/07/23 02:47:41;;;;;;;6.88;4.03;;;;;;;;;;5111159;28;20031;-70
2021/07/23 02:53:49;;;;;;;5.00;3.30;;;;;;;;;;5111377;27;20462;-70
2021/07/23 02:56:15;;;;;;;7.18;4.07;;;;;;;;;;5110944;28;20020;-70
2021/07/23 02:58:42;;;;;;;6.50;3.50;;;;;;;;;;5111516;28;20020;-70
2021/07/23 03:01:09;;;;;;;6.22;3.85;;;;;;;;;;5111259;28;20467;-70
2021/07/23 03:03:35;;;;;;;6.22;3.70;;;;;;;;;;5110742;28;20024;-70
2021/07/23 03:06:02;;;;;;;10.55;4.35;;;;;;;;;;5111212;28;20091;-70
2021/07/23 03:10:33;;;;;;;7.28;4.07;;;;;;;;;;5111272;27;20396;-70
2021/07/23 03:13:37;;;;;;;6.20;3.72;;;;;;;;;;5112023;27;20384;-69
2021/07/23 03:16:09;;;;;;;7.00;3.88;;;;;;;;;;5110888;28;20081;-69
2021/07/23 03:18:35;;;;;;;8.18;3.72;;;;;;;;;;5111310;28;20055;-70
2021/07/23 03:21:01;;;;;;;6.63;4.05;;;;;;;;;;5111227;28;20460;-70
2021/07/23 03:23:28;;;;;;;4.88;3.15;;;;;;;;;;5109449;28;20375;-70
2021/07/23 03:26:08;;;;;;;10.18;3.83;;;;;;;;;;5071057;28;20486;-70
2021/07/23 03:28:34;;;;;;;6.15;3.60;;;;;;;;;;5070667;28;20029;-70
2021/07/23 03:31:00;;;;;;;6.32;3.63;;;;;;;;;;5069093;28;20055;-69
2021/07/23 03:33:26;;;;;;;8.75;3.78;;;;;;;;;;5070563;28;20031;-70
2021/07/23 03:35:52;;;;;;;7.13;4.60;;;;;;;;;;5070717;28;20073;-70
2021/07/23 03:38:19;;;;;;;6.30;4.30;;;;;;;;;;5070048;28;20036;-70
2021/07/23 03:40:45;;;;;;;8.10;3.85;;;;;;;;;;5069120;28;20041;-69
2021/07/23 03:43:11;;;;;;;8.30;4.72;;;;;;;;;;5069119;28;20408;-70
2021/07/23 03:47:03;;;;;;;9.52;5.25;;;;;;;;;;5111891;27;20396;-70
2021/07/23 03:49:29;;;;;;;6.28;3.78;;;;;;;;;;5111565;28;20020;-70
2021/07/23 03:53:41;;;;;;;7.13;4.20;;;;;;;;;;5111710;27;20768;-70
2021/07/23 03:56:08;;;;;;;8.23;4.20;;;;;;;;;;5111328;28;20024;-70
2021/07/23 03:58:36;;;;;;;7.10;3.97;;;;;;;;;;5109626;28;20073;-70
2021/07/23 04:06:23;;;;;;;8.18;4.05;;;;;;;;;;5111090;27;20397;-70
2021/07/23 04:08:50;;;;;;;7.95;3.95;;;;;;;;;;5111599;28;20081;-70
2021/07/23 04:11:17;;;;;;;7.38;4.18;;;;;;;;;;5109922;28;20085;-70
2021/07/23 04:13:44;;;;;;;11.90;3.90;;;;;;;;;;5109591;28;20028;-70
2021/07/23 04:16:10;;;;;;;7.47;4.25;;;;;;;;;;5111061;28;20024;-70
2021/07/23 04:18:36;;;;;;;6.10;4.20;;;;;;;;;;5111036;28;20429;-70
2021/07/23 04:21:45;;;;;;;10.95;3.83;;;;;;;;;;5111285;27;20513;-70
2021/07/23 04:24:11;;;;;;;6.38;3.70;;;;;;;;;;5111285;28;20031;-70
2021/07/23 04:26:37;;;;;;;6.35;3.55;;;;;;;;;;5110710;28;20020;-70
2021/07/23 04:29:21;;;;;;;8.38;3.90;;;;;;;;;;5111965;27;20817;-71
2021/07/23 04:31:47;;;;;;;8.10;3.60;;;;;;;;;;5111309;28;20537;-71
2021/07/23 04:34:13;;;;;;;7.43;3.85;;;;;;;;;;5109640;28;20024;-71
2021/07/23 04:36:40;;;;;;;6.07;3.80;;;;;;;;;;5109924;28;20094;-71
2021/07/23 04:39:06;;;;;;;7.25;3.63;;;;;;;;;;5111343;28;20460;-71
2021/07/23 04:41:32;;;;;;;7.47;4.05;;;;;;;;;;5110673;28;20028;-71
2021/07/23 04:44:58;;;;;;;6.88;3.70;;;;;;;;;;5111712;27;20408;-71
2021/07/23 04:47:24;;;;;;;10.13;4.13;;;;;;;;;;5110861;28;20023;-71
2021/07/23 04:49:50;;;;;;;6.43;3.40;;;;;;;;;;5111204;28;20020;-70
2021/07/23 04:53:16;;;;;;;7.28;4.00;;;;;;;;;;5111993;27;20493;-70
2021/07/23 04:55:42;;;;;;;6.22;3.75;;;;;;;;;;5110858;28;20073;-70
2021/07/23 04:58:24;;;;;;;8.70;3.38;;;;;;;;;;5112004;27;20396;-70
2021/07/23 05:00:52;;;;;;;6.88;3.15;;;;;;;;;;5111293;28;20035;-70
2021/07/23 05:06:41;;;;;;;5.13;3.00;;;;;;;;;;5112015;27;20401;-70
2021/07/23 05:11:11;;;;;;;7.03;3.55;;;;;;;;;;5110671;27;20401;-69
2021/07/23 05:13:37;;;;;;;7.10;3.22;;;;;;;;;;5111458;28;20020;-69
2021/07/23 05:16:04;;;;;;;6.38;3.38;;;;;;;;;;5109565;28;20055;-71
2021/07/23 05:18:31;;;;;;;6.00;2.92;;;;;;;;;;5109947;28;20495;-70
2021/07/23 05:20:57;;;;;;;5.50;3.30;;;;;;;;;;5111198;28;20019;-70
2021/07/23 05:23:23;;;;;;;4.68;2.42;;;;;;;;;;5110883;28;20020;-70
2021/07/23 05:25:49;;;;;;;4.57;2.47;;;;;;;;;;5111165;28;20016;-70
2021/07/23 05:28:16;;;;;;;4.25;2.45;;;;;;;;;;5109564;28;20034;-70
2021/07/23 05:30:42;;;;;;;4.75;2.33;;;;;;;;;;5108015;28;20059;-70
2021/07/23 05:33:08;;;;;;;3.83;2.60;;;;;;;;;;5119979;28;20023;-70
2021/07/23 05:35:34;;;;;;;6.97;2.90;;;;;;;;;;5130001;28;20602;-70
2021/07/23 05:38:01;;;;;;;4.75;2.60;;;;;;;;;;5130988;28;20060;-70
2021/07/23 05:40:27;;;;;;;5.43;2.85;;;;;;;;;;5129853;28;20024;-70
2021/07/23 05:42:53;;;;;;;3.92;2.40;;;;;;;;;;5111240;28;20024;-70
2021/07/23 05:45:20;;;;;;;7.63;4.57;;;;;;;;;;5108167;28;20380;-69
2021/07/23 05:47:46;;;;;;;5.78;3.38;;;;;;;;;;5124158;28;20646;-69
2021/07/23 05:50:13;;;;;;;4.93;2.67;;;;;;;;;;5110366;28;20077;-70
2021/07/23 05:52:39;;;;;;;6.22;2.70;;;;;;;;;;5109868;28;20030;-70
2021/07/23 05:55:05;;;;;;;4.97;2.53;;;;;;;;;;5110455;28;20027;-70
2021/07/23 05:57:31;;;;;;;5.30;2.80;;;;;;;;;;5109886;28;20016;-70
2021/07/23 05:59:57;;;;;;;8.77;2.78;;;;;;;;;;5109008;28;20111;-70
2021/07/23 06:02:24;;;;;;;4.07;2.13;;;;;;;;;;5108700;28;20027;-70
2021/07/23 06:04:50;;;;;;;5.82;2.50;;;;;;;;;;5107919;28;20020;-70
2021/07/23 06:07:18;;;;;;;4.72;2.70;;;;;;;;;;5109928;28;20383;-70
2021/07/23 06:11:20;;;;;;;5.43;2.67;;;;;;;;;;5111166;27;20326;-69
2021/07/23 06:13:47;;;;;;;5.45;2.40;;;;;;;;;;5110544;28;20089;-69
2021/07/23 06:16:13;;;;;;;4.85;2.38;;;;;;;;;;5111135;28;20099;-68
2021/07/23 06:18:39;;;;;;;5.25;2.28;;;;;;;;;;5107277;28;20032;-69
2021/07/23 06:21:09;;;;;;;7.13;2.80;;;;;;;;;;5100561;28;20027;-69
2021/07/23 06:23:35;;;;;;;6.45;2.63;;;;;;;;;;5110601;28;20039;-73
2021/07/23 06:28:11;;;;;;;7.57;2.63;;;;;;;;;;5090475;27;20413;-69
2021/07/23 06:30:40;;;;;;;4.43;2.50;;;;;;;;;;5090631;28;20461;-69
2021/07/23 06:33:06;;;;;;;5.43;2.33;;;;;;;;;;5087153;28;20028;-70
2021/07/23 06:35:33;;;;;;;4.43;1.90;;;;;;;;;;5100408;28;20045;-69
2021/07/23 06:38:00;;;;;;;4.70;2.55;;;;;;;;;;5090098;28;20020;-70
2021/07/23 06:40:26;;;;;;;5.70;2.20;;;;;;;;;;5089983;28;20103;-69
2021/07/23 06:42:52;;;;;;;4.47;2.47;;;;;;;;;;5090258;28;20017;-69
2021/07/23 06:45:19;;;;;;;3.40;1.67;;;;;;;;;;5089706;28;20028;-70
2021/07/23 06:47:45;;;;;;;3.83;1.80;;;;;;;;;;5087391;28;20071;-70
2021/07/23 06:53:42;;;;;;;2.50;1.85;;;;;;;;;;5108902;27;20393;-70
2021/07/23 06:56:09;;;;;;;2.38;1.25;;;;;;;;;;5108579;28;20537;-70
2021/07/23 06:58:35;;;;;;;5.20;1.73;;;;;;;;;;5110485;28;20047;-70
2021/07/23 07:02:19;;;;;;;3.60;1.83;;;;;;;;;;5112121;27;20466;-72
2021/07/23 07:04:45;;;;;;;4.03;1.40;;;;;;;;;;5112262;28;20039;-70
2021/07/23 07:07:13;;;;;;;4.70;1.60;;;;;;;;;;5125022;28;20102;-70
2021/07/23 07:09:40;;;;;;;4.43;2.25;;;;;;;;;;5130772;28;20623;-70
2021/07/23 07:14:15;;;;;;;4.38;2.00;;;;;;;;;;5119863;27;20387;-70
2021/07/23 07:16:41;;;;;;;3.85;1.45;;;;;;;;;;5129252;28;20547;-70
2021/07/23 07:19:07;;;;;;;4.88;2.05;;;;;;;;;;5131171;28;20020;-71
2021/07/23 07:21:34;;;;;;;3.63;1.80;;;;;;;;;;5131449;28;20023;-70
2021/07/23 07:24:01;;;;;;;2.97;1.52;;;;;;;;;;5129489;28;20020;-70
2021/07/23 07:26:27;;;;;;;2.33;1.30;;;;;;;;;;5131236;28;20015;-70
2021/07/23 07:28:53;;;;;;;3.25;1.77;;;;;;;;;;5131394;28;20030;-69
2021/07/23 07:31:20;;;;;;;3.60;1.52;;;;;;;;;;5130868;28;20019;-70
2021/07/23 07:35:58;;;;;;;3.08;1.55;;;;;;;;;;5111024;27;20113;-70
2021/07/23 07:38:24;;;;;;;4.13;1.67;;;;;;;;;;5110694;28;20031;-70
2021/07/23 07:40:50;;;;;;;3.05;1.52;;;;;;;;;;5117937;28;20015;-70
2021/07/23 07:43:16;;;;;;;3.72;1.65;;;;;;;;;;5129491;28;20027;-70
2021/07/23 07:45:43;;;;;;;4.47;2.15;;;;;;;;;;5120054;28;20035;-71
2021/07/23 07:49:10;;;;;;;2.80;1.58;;;;;;;;;;5109088;27;20457;-70
2021/07/23 07:51:36;;;;;;;3.17;2.00;;;;;;;;;;5117313;28;20034;-71
2021/07/23 07:54:02;;;;;;;3.25;1.67;;;;;;;;;;5124685;28;20023;-70
2021/07/23 07:56:29;;;;;;;4.07;2.33;;;;;;;;;;5123856;28;20412;-70
2021/07/23 07:58:55;;;;;;;4.93;1.52;;;;;;;;;;5110458;28;20081;-69
2021/07/23 08:01:21;;;;;;;3.67;1.73;;;;;;;;;;5110971;28;20099;-69
2021/07/23 08:03:47;;;;;;;2.10;1.50;;;;;;;;;;5110763;28;20069;-70
2021/07/23 08:09:14;;;;;;;4.82;1.95;;;;;;;;;;5086964;28;20040;-70
2021/07/23 08:11:40;;;;;;;3.15;1.63;;;;;;;;;;5108920;28;20468;-71
2021/07/23 08:14:06;;;;;;;2.40;1.52;;;;;;;;;;5129934;28;20487;-70
2021/07/23 08:16:32;;;;;;;4.18;1.88;;;;;;;;;;5130678;28;20026;-70
2021/07/23 08:19:03;;;;;;;4.85;1.55;;;;;;;;;;5130649;28;20074;-70
2021/07/23 08:21:31;;;;;;;4.53;1.60;;;;;;;;;;5117958;28;20027;-70
2021/07/23 08:24:01;;;;;;;4.03;1.70;;;;;;;;;;5109225;28;20020;-70
2021/07/23 08:26:27;;;;;;;3.20;1.55;;;;;;;;;;5109780;28;20024;-70
2021/07/23 08:28:53;;;;;;;4.07;1.90;;;;;;;;;;5107762;28;20024;-71
2021/07/23 08:31:20;;;;;;;3.78;1.60;;;;;;;;;;5110032;28;20165;-71
2021/07/23 08:33:46;;;;;;;3.60;1.83;;;;;;;;;;5109503;28;20020;-71
2021/07/23 08:36:12;;;;;;;3.28;1.70;;;;;;;;;;5109804;28;20077;-71
2021/07/23 08:38:38;;;;;;;2.80;1.50;;;;;;;;;;5108238;28;20497;-72
2021/07/23 08:41:05;;;;;;;3.22;1.65;;;;;;;;;;5109363;28;20391;-71
2021/07/23 08:43:31;;;;;;;3.05;1.58;;;;;;;;;;5109964;28;20016;-72
2021/07/23 08:45:58;;;;;;;8.13;2.00;;;;;;;;;;5121506;28;20024;-70
2021/07/23 08:48:24;;;;;;;4.30;1.80;;;;;;;;;;5129395;28;20066;-70
2021/07/23 08:50:51;;;;;;;6.85;2.22;;;;;;;;;;5130292;28;20081;-71
2021/07/23 08:53:17;;;;;;;2.08;1.20;;;;;;;;;;5130458;28;20023;-72
2021/07/23 08:55:44;;;;;;;2.85;1.50;;;;;;;;;;5119944;28;20020;-73
2021/07/23 08:58:10;;;;;;;3.50;1.73;;;;;;;;;;5121781;28;20020;-72
2021/07/23 09:00:38;;;;;;;3.67;1.60;;;;;;;;;;5110754;28;20023;-74
2021/07/23 09:03:08;;;;;;;2.85;1.50;;;;;;;;;;5096212;28;20032;-74
2021/07/23 09:05:46;;;;;;;2.63;1.50;;;;;;;;;;5100471;28;20059;-73
2021/07/23 09:08:19;;;;;;;2.55;1.52;;;;;;;;;;5094581;28;20028;-75
2021/07/23 09:10:46;;;;;;;4.50;1.80;;;;;;;;;;5109735;28;20028;-72
2021/07/23 09:13:22;;;;;;;5.13;2.00;;;;;;;;;;5093951;28;20070;-71
2021/07/23 09:15:48;;;;;;;3.47;1.50;;;;;;;;;;5094040;28;20031;-72
2021/07/23 09:18:31;;;;;;;3.70;1.58;;;;;;;;;;5095738;28;20020;-75
2021/07/23 09:20:58;;;;;;;1.98;1.33;;;;;;;;;;5095644;28;20024;-71
2021/07/23 09:23:27;;;;;;;3.35;1.77;;;;;;;;;;5092277;28;20100;-73
2021/07/23 09:25:53;;;;;;;3.78;1.80;;;;;;;;;;5096183;28;20020;-76
2021/07/23 09:28:29;;;;;;;4.00;1.70;;;;;;;;;;5095775;28;20059;-73
2021/07/23 09:30:57;;;;;;;2.67;1.60;;;;;;;;;;5095455;28;20473;-77
2021/07/23 09:33:25;;;;;;;5.63;1.60;;;;;;;;;;5093446;28;20384;-74
2021/07/23 09:35:54;;;;;;;3.33;1.80;;;;;;;;;;5094889;28;20099;-73
2021/07/23 09:38:22;;;;;;;3.22;1.58;;;;;;;;;;5095594;28;20020;-73
2021/07/23 09:40:48;;;;;;;3.30;1.45;;;;;;;;;;5094164;28;20031;-72
2021/07/23 09:43:35;;;;;;;3.17;1.40;;;;;;;;;;5095551;28;20509;-73
2021/07/23 09:46:16;;;;;;;2.65;1.40;;;;;;;;;;5095527;28;20532;-72
2021/07/23 09:48:43;;;;;;;3.05;1.60;;;;;;;;;;5095972;28;20055;-74
2021/07/23 09:51:10;;;;;;;2.28;1.60;;;;;;;;;;5095600;28;20024;-71
2021/07/23 09:53:36;;;;;;;6.28;1.83;;;;;;;;;;5095608;28;20361;-72
2021/07/23 09:56:06;;;;;;;2.42;1.58;;;;;;;;;;5096138;28;20020;-73
2021/07/23 09:58:36;;;;;;;2.08;1.33;;;;;;;;;;5095477;28;20495;-71
2021/07/23 10:01:08;;;;;;;3.78;1.60;;;;;;;;;;5093164;28;20388;-69
2021/07/23 10:03:35;;;;;;;4.03;1.70;;;;;;;;;;5094969;28;20020;-69
2021/07/23 10:06:06;;;;;;;5.78;1.48;;;;;;;;;;5094879;28;20387;-70
2021/07/23 10:08:33;;;;;;;1.93;1.33;;;;;;;;;;5095104;28;20036;-70
2021/07/23 10:11:01;;;;;;;2.97;1.40;;;;;;;;;;5094207;28;20028;-70
2021/07/23 10:13:29;;;;;;;2.20;1.50;;;;;;;;;;5102391;28;20380;-70
2021/07/23 10:15:56;;;;;;;2.60;1.27;;;;;;;;;;5105368;28;20055;-70
2021/07/23 10:18:23;;;;;;;2.83;1.35;;;;;;;;;;5104946;28;20024;-71
2021/07/23 10:20:49;;;;;;;1.55;1.05;;;;;;;;;;5104207;28;20020;-70
2021/07/23 10:23:23;;;;;;;2.03;1.13;;;;;;;;;;5101477;28;20100;-70
2021/07/23 10:25:50;;;;;;;2.33;1.20;;;;;;;;;;5103474;28;20031;-69
2021/07/23 10:28:35;;;;;;;2.00;1.02;;;;;;;;;;5104955;28;20461;-70
2021/07/23 10:31:01;;;;;;;2.35;1.20;;;;;;;;;;5103767;28;20016;-71
2021/07/23 10:33:45;;;;;;;2.58;1.17;;;;;;;;;;5099978;28;20016;-70
2021/07/23 10:36:35;;;;;;;1.98;1.20;;;;;;;;;;5106005;28;20020;-71
2021/07/23 10:39:07;;;;;;;2.17;1.10;;;;;;;;;;5097205;28;20040;-68
2021/07/23 10:41:36;;;;;;;1.58;1.23;;;;;;;;;;5104785;28;20023;-69
2021/07/23 10:44:02;;;;;;;1.92;1.20;;;;;;;;;;5104358;28;20016;-69
2021/07/23 10:46:44;;;;;;;1.70;0.80;;;;;;;;;;5106329;28;20024;-70
2021/07/23 10:49:11;;;;;;;3.90;1.13;;;;;;;;;;5106317;28;20051;-70
2021/07/23 10:51:50;;;;;;;2.22;1.27;;;;;;;;;;5098999;28;20022;-71
2021/07/23 10:54:19;;;;;;;2.65;1.50;;;;;;;;;;5094980;28;20516;-70
2021/07/23 10:57:00;;;;;;;2.25;1.13;;;;;;;;;;5095007;28;20024;-71
2021/07/23 10:59:42;;;;;;;1.20;0.90;;;;;;;;;;5094647;28;20024;-71
2021/07/23 11:02:15;;;;;;;2.05;1.20;;;;;;;;;;5092217;28;20057;-69
2021/07/23 11:04:41;;;;;;;1.77;1.20;;;;;;;;;;5094531;28;20027;-70
2021/07/23 11:07:08;;;;;;;2.83;1.30;;;;;;;;;;5093292;28;20054;-69
2021/07/23 11:09:34;;;;;;;1.98;1.23;;;;;;;;;;5094425;28;20031;-69
2021/07/23 11:12:19;;;;;;;9.63;1.55;;;;;;;;;;5103270;28;20047;-69
2021/07/23 11:14:52;;;;;;;3.15;1.48;;;;;;;;;;5114139;28;20072;-69
2021/07/23 11:17:18;;;;;;;3.35;1.30;;;;;;;;;;5103176;28;20107;-70
2021/07/23 11:19:48;;;;;;;2.35;1.25;;;;;;;;;;5091467;28;20417;-69
2021/07/23 11:22:25;;;;;;;2.60;1.30;;;;;;;;;;5092570;28;20102;-69
2021/07/23 11:24:54;;;;;;;3.03;1.48;;;;;;;;;;5092122;28;20024;-69
2021/07/23 11:27:24;;;;;;;2.25;1.25;;;;;;;;;;5092814;28;20107;-70
2021/07/23 11:29:51;;;;;;;2.33;1.30;;;;;;;;;;5091634;28;20434;-70
2021/07/23 11:32:18;;;;;;;1.58;1.00;;;;;;;;;;5102791;28;20023;-70
2021/07/23 11:34:45;;;;;;;2.13;1.15;;;;;;;;;;5106634;28;20020;-70
2021/07/23 11:37:15;;;;;;;3.60;1.55;;;;;;;;;;5097511;28;20055;-69
2021/07/23 11:39:51;;;;;;;2.38;1.42;;;;;;;;;;5091951;28;20023;-70
2021/07/23 11:42:18;;;;;;;3.92;1.65;;;;;;;;;;5100343;28;20028;-70
2021/07/23 11:45:10;;;;;;;3.13;1.40;;;;;;;;;;5093163;28;20039;-70
2021/07/23 11:47:44;;;;;;;2.70;1.33;;;;;;;;;;5104932;28;20072;-71
2021/07/23 11:50:12;;;;;;;2.58;1.25;;;;;;;;;;5092761;28;20023;-70
2021/07/23 11:52:38;;;;;;;3.72;1.70;;;;;;;;;;5091493;28;20026;-71
2021/07/23 11:55:05;;;;;;;2.67;1.52;;;;;;;;;;5093070;28;20443;-70
2021/07/23 11:57:38;;;;;;;2.47;1.20;;;;;;;;;;5092348;28;20043;-70
2021/07/23 12:00:05;;;;;;;3.53;1.55;;;;;;;;;;5093354;28;20020;-70
2021/07/23 12:02:31;;;;;;;2.58;1.25;;;;;;;;;;5093789;28;20476;-71
2021/07/23 12:05:11;;;;;;;3.25;1.48;;;;;;;;;;5090772;28;20024;-71
2021/07/23 12:07:38;;;;;;;1.83;1.20;;;;;;;;;;5092731;28;20111;-71
2021/07/23 12:10:06;;;;;;;2.83;1.35;;;;;;;;;;5092562;28;20027;-70
2021/07/23 12:12:32;;;;;;;2.80;1.38;;;;;;;;;;5091828;28;20158;-70
2021/07/23 12:15:18;;;;;;;2.17;1.23;;;;;;;;;;5092866;28;20024;-68
2021/07/23 12:17:45;;;;;;;2.50;1.25;;;;;;;;;;5091105;28;20035;-69
2021/07/23 12:20:12;;;;;;;2.58;1.20;;;;;;;;;;5093032;28;20055;-70
2021/07/23 12:22:38;;;;;;;1.85;1.30;;;;;;;;;;5091478;28;20039;-69
2021/07/23 12:25:20;;;;;;;2.22;1.10;;;;;;;;;;5091068;28;20575;-69
2021/07/23 12:27:46;;;;;;;;;;;;;;;;;;5090545;28;20032;-69
2021/07/23 12:30:13;;;;;;;3.60;1.60;;;;;;;;;;5101026;28;19948;-70
2021/07/23 12:32:39;;;;;;;2.42;1.20;;;;;;;;;;5090997;28;20487;-69
2021/07/23 12:35:06;;;;;;;1.98;1.17;;;;;;;;;;5089765;28;20020;-69
2021/07/23 12:37:32;;;;;;;3.63;1.40;;;;;;;;;;5094162;28;20157;-69
2021/07/23 12:40:02;;;;;;;3.13;1.25;;;;;;;;;;5096117;28;20024;-69
2021/07/23 12:42:30;;;;;;;1.98;1.08;;;;;;;;;;5092992;28;20027;-69
2021/07/23 12:44:56;;;;;;;2.25;1.30;;;;;;;;;;5100137;28;20020;-68
2021/07/23 12:47:26;;;;;;;3.00;1.58;;;;;;;;;;5095880;28;20508;-69
2021/07/23 12:49:53;;;;;;;2.42;1.38;;;;;;;;;;5095082;28;20064;-69
2021/07/23 12:52:20;;;;;;;2.63;1.30;;;;;;;;;;5096244;28;20028;-69
2021/07/23 12:54:50;;;;;;;2.60;1.38;;;;;;;;;;5110317;28;20058;-69
2021/07/23 12:57:17;;;;;;;3.33;1.58;;;;;;;;;;5115534;28;20421;-69
2021/07/23 12:59:43;;;;;;;1.90;1.17;;;;;;;;;;5115528;28;20491;-68
2021/07/23 13:02:10;;;;;;;3.97;1.52;;;;;;;;;;5116506;28;20023;-69
2021/07/23 13:04:36;;;;;;;1.88;1.10;;;;;;;;;;5113085;28;20027;-70
2021/07/23 13:07:03;;;;;;;2.13;1.10;;;;;;;;;;5095191;28;20473;-69
2021/07/23 13:09:29;;;;;;;3.33;1.55;;;;;;;;;;5092689;28;20060;-69
2021/07/23 13:11:55;;;;;;;2.33;1.40;;;;;;;;;;5092597;28;20484;-68
2021/07/23 13:14:22;;;;;;;3.35;1.50;;;;;;;;;;5093835;28;20079;-70
2021/07/23 13:16:48;;;;;;;2.25;1.27;;;;;;;;;;5093523;28;20115;-70
2021/07/23 13:19:15;;;;;;;3.88;1.65;;;;;;;;;;5093938;28;20016;-70
2021/07/23 13:21:41;;;;;;;3.75;1.65;;;;;;;;;;5093249;28;20026;-70
2021/07/23 13:24:07;;;;;;;2.92;1.50;;;;;;;;;;5092395;28;20472;-69
2021/07/23 13:26:34;;;;;;;2.20;1.58;;;;;;;;;;5094623;28;20032;-70
2021/07/23 13:29:00;;;;;;;2.40;1.48;;;;;;;;;;5093606;28;20514;-69
2021/07/23 13:31:26;;;;;;;3.90;1.45;;;;;;;;;;5095711;28;20035;-69
2021/07/23 13:33:53;;;;;;;3.90;1.50;;;;;;;;;;5095576;28;20036;-69
2021/07/23 13:36:21;;;;;;;5.97;1.50;;;;;;;;;;5095224;28;20024;-70
2021/07/23 13:39:06;;;;;;;2.40;1.52;;;;;;;;;;5095871;28;20027;-70
2021/07/23 13:41:35;;;;;;;2.47;1.45;;;;;;;;;;5095170;28;20022;-69
2021/07/23 13:44:03;;;;;;;6.57;1.50;;;;;;;;;;5095157;28;20415;-69
2021/07/23 13:46:30;;;;;;;4.72;1.40;;;;;;;;;;5095279;28;20016;-70
2021/07/23 13:48:56;;;;;;;2.88;1.60;;;;;;;;;;5094777;28;20040;-69
2021/07/23 13:51:22;;;;;;;2.40;1.38;;;;;;;;;;5095503;28;20051;-70
2021/07/23 13:53:48;;;;;;;2.42;1.52;;;;;;;;;;5095281;28;20101;-69
2021/07/23 13:56:15;;;;;;;3.83;2.05;;;;;;;;;;5095126;28;20023;-69
2021/07/23 13:58:41;;;;;;;1.30;1.10;;;;;;;;;;5093781;28;20468;-69
2021/07/23 14:01:08;;;;;;;4.55;1.35;;;;;;;;;;5093763;28;20115;-69
2021/07/23 14:03:34;;;;;;;2.67;1.48;;;;;;;;;;5094879;28;20028;-70
2021/07/23 14:06:01;;;;;;;3.72;2.08;;;;;;;;;;5093747;28;20080;-69
2021/07/23 14:08:27;;;;;;;2.95;1.80;;;;;;;;;;5094896;28;20111;-69
2021/07/23 14:10:53;;;;;;;2.75;1.90;;;;;;;;;;5094636;28;20028;-69
2021/07/23 14:13:19;;;;;;;3.22;1.70;;;;;;;;;;5095060;28;20077;-69
2021/07/23 14:15:46;;;;;;;3.15;1.70;;;;;;;;;;5094895;28;20027;-69
2021/07/23 14:18:12;;;;;;;2.88;1.40;;;;;;;;;;5094568;28;20486;-69
2021/07/23 14:20:39;;;;;;;6.88;2.00;;;;;;;;;;5094833;28;20028;-69
2021/07/23 14:23:05;;;;;;;3.10;1.33;;;;;;;;;;5094865;28;20023;-69
2021/07/23 14:25:31;;;;;;;2.25;1.23;;;;;;;;;;5092935;28;20418;-69
2021/07/23 14:27:59;;;;;;;6.10;1.52;;;;;;;;;;5094561;28;20032;-69
2021/07/23 14:30:26;;;;;;;2.35;1.25;;;;;;;;;;5094495;28;20027;-69
2021/07/23 14:32:53;;;;;;;5.30;1.73;;;;;;;;;;5094203;28;20027;-69
2021/07/23 14:35:19;;;;;;;5.22;1.60;;;;;;;;;;5094537;28;20387;-70
2021/07/23 14:37:45;;;;;;;3.35;1.52;;;;;;;;;;5094620;28;20028;-69
2021/07/23 14:40:13;;;;;;;2.80;1.80;;;;;;;;;;5094082;28;20020;-69
2021/07/23 14:42:39;;;;;;;5.35;2.45;;;;;;;;;;5094324;28;20047;-69
2021/07/23 14:45:06;;;;;;;4.53;2.30;;;;;;;;;;5094025;28;20498;-69
2021/07/23 14:47:33;;;;;;;3.13;1.95;;;;;;;;;;5094059;28;20404;-69
2021/07/23 14:49:59;;;;;;;3.72;2.00;;;;;;;;;;5094196;28;20024;-69
2021/07/23 14:52:25;;;;;;;3.40;1.60;;;;;;;;;;5093736;28;20127;-70
2021/07/23 14:54:52;;;;;;;3.17;2.03;;;;;;;;;;5094239;28;20020;-69
2021/07/23 14:57:18;;;;;;;4.95;2.00;;;;;;;;;;5093599;28;20533;-69
2021/07/23 14:59:44;;;;;;;3.33;1.90;;;;;;;;;;5093796;28;20388;-70
2021/07/23 15:02:11;;;;;;;3.00;1.90;;;;;;;;;;5094245;28;20051;-70
2021/07/23 15:04:37;;;;;;;2.92;1.95;;;;;;;;;;5094049;28;20024;-70
2021/07/23 15:07:03;;;;;;;3.40;2.15;;;;;;;;;;5093520;28;20031;-70
2021/07/23 15:09:29;;;;;;;8.35;2.13;;;;;;;;;;5093954;28;20039;-70
2021/07/23 15:11:57;;;;;;;3.28;2.10;;;;;;;;;;5093907;28;20024;-69
2021/07/23 15:14:24;;;;;;;4.68;2.15;;;;;;;;;;5092141;28;20391;-69
2021/07/23 15:16:50;;;;;;;7.63;2.45;;;;;;;;;;5093840;28;20027;-69
2021/07/23 15:19:23;;;;;;;3.70;1.98;;;;;;;;;;5093776;28;20016;-70
2021/07/23 15:21:57;;;;;;;3.00;1.70;;;;;;;;;;5093551;28;20069;-69
2021/07/23 15:24:24;;;;;;;4.20;2.20;;;;;;;;;;5092403;28;20024;-70
2021/07/23 15:26:50;;;;;;;5.15;2.40;;;;;;;;;;5093722;28;20024;-70
2021/07/23 15:29:16;;;;;;;4.07;1.80;;;;;;;;;;5093153;28;20066;-70
2021/07/23 15:31:42;;;;;;;2.78;1.75;;;;;;;;;;5093804;28;20024;-70
2021/07/23 15:34:09;;;;;;;4.28;2.75;;;;;;;;;;5093439;28;20126;-70
2021/07/23 15:36:35;;;;;;;4.40;2.10;;;;;;;;;;5093194;28;20468;-70
2021/07/23 15:39:01;;;;;;;3.53;2.17;;;;;;;;;;5093514;28;20025;-70
2021/07/23 15:41:27;;;;;;;2.92;1.98;;;;;;;;;;5093125;28;20024;-70
2021/07/23 15:43:53;;;;;;;3.83;2.00;;;;;;;;;;5093375;28;20027;-70
2021/07/23 15:46:19;;;;;;;4.88;2.20;;;;;;;;;;5093530;28;20548;-70